Time;durP1;ratioP1;P1;durP2;ratioP2;P2;SDS_P1;SDS_P2;PMS_P1;PMS_P2;Temp;Humidity;BMP_temperature;BMP_pressure;BME280_temperature;BME280_humidity;BME280_pressure;Samples;Min_cycle;Max_cycle;Signal;HPM_P1;HPM_P2
2023/09/10 00:01:05;;;;;;;6.37;2.97;;;;;;;16.47;61.53;95037.63;5029284;28;20207;-42
2023/09/10 00:03:32;;;;;;;4.53;2.87;;;;;;;16.45;61.61;95031.84;5047270;28;20290;-42
2023/09/10 00:05:59;;;;;;;5.40;3.67;;;;;;;16.42;61.78;95037.31;5049367;28;20183;-45
2023/09/10 00:08:27;;;;;;;5.77;2.80;;;;;;;16.36;61.97;95039.75;5048961;28;20187;-42
2023/09/10 00:10:56;;;;;;;8.10;2.73;;;;;;;16.36;62.28;95044.91;5049178;28;20245;-43
2023/09/10 00:13:23;;;;;;;3.17;2.70;;;;;;;16.31;62.67;95046.22;5049510;28;20198;-42
2023/09/10 00:15:49;;;;;;;3.17;2.87;;;;;;;16.26;62.76;95048.47;5053458;28;20580;-43
2023/09/10 00:18:16;;;;;;;4.80;3.00;;;;;;;16.22;63.13;95042.03;5053149;28;20643;-43
2023/09/10 00:20:43;;;;;;;5.40;2.70;;;;;;;16.20;63.19;95030.28;5053477;28;20195;-42
2023/09/10 00:23:10;;;;;;;4.00;2.90;;;;;;;16.19;63.62;95032.06;5052973;28;20320;-43
2023/09/10 00:25:38;;;;;;;5.60;3.20;;;;;;;16.16;63.69;95032.38;5053221;28;20214;-43
2023/09/10 00:28:05;;;;;;;4.87;2.97;;;;;;;16.13;63.59;95034.47;5053296;28;20194;-42
2023/09/10 00:30:32;;;;;;;4.87;3.37;;;;;;;16.11;63.64;95031.25;5052681;28;20238;-42
2023/09/10 00:32:59;;;;;;;5.53;2.83;;;;;;;16.04;63.79;95031.09;5053036;28;20233;-43
2023/09/10 00:35:25;;;;;;;5.47;2.90;;;;;;;15.99;64.11;95020.47;5052688;28;20191;-42
2023/09/10 00:37:52;;;;;;;3.70;2.80;;;;;;;16.00;64.40;95035.75;5053128;28;20195;-43
2023/09/10 00:40:19;;;;;;;3.40;2.80;;;;;;;15.96;64.81;95031.09;5052491;28;20195;-45
2023/09/10 00:42:47;;;;;;;6.27;2.77;;;;;;;15.91;64.83;95028.19;5052763;28;20230;-42
2023/09/10 00:45:14;;;;;;;6.27;2.90;;;;;;;15.92;65.00;95029.81;5052373;28;20785;-42
2023/09/10 00:47:44;;;;;;;6.00;3.00;;;;;;;15.89;65.31;95027.53;5053055;28;20190;-42
2023/09/10 00:50:11;;;;;;;4.40;3.20;;;;;;;15.86;65.45;95023.53;5052374;28;20191;-42
2023/09/10 00:52:41;;;;;;;4.77;3.13;;;;;;;15.87;65.36;95025.13;5052693;28;20586;-42
2023/09/10 00:55:09;;;;;;;4.23;3.20;;;;;;;15.82;66.15;95024.03;5052369;28;20187;-42
2023/09/10 00:57:36;;;;;;;5.17;3.00;;;;;;;15.82;66.39;95027.41;5052665;28;20190;-43
2023/09/10 01:00:13;;;;;;;9.87;2.73;;;;;;;15.82;66.75;95034.34;5052467;28;20187;-41
2023/09/10 01:02:43;;;;;;;5.07;2.97;;;;;;;15.79;67.10;95033.66;5052473;28;20210;-42
2023/09/10 01:05:10;;;;;;;3.83;2.60;;;;;;;15.72;67.09;95022.41;5052508;28;20191;-42
2023/09/10 01:07:37;;;;;;;4.23;2.70;;;;;;;15.74;67.18;95033.34;5052289;28;20195;-45
2023/09/10 01:10:05;;;;;;;6.30;2.80;;;;;;;15.72;67.24;95030.16;5052340;28;20203;-42
2023/09/10 01:12:42;;;;;;;4.20;2.50;;;;;;;15.70;67.49;95026.09;5052257;28;20191;-43
2023/09/10 01:15:15;;;;;;;4.90;2.60;;;;;;;15.66;67.76;95024.81;5051829;28;20678;-43
2023/09/10 01:17:55;;;;;;;2.60;2.40;;;;;;;15.54;67.66;95013.97;5052464;28;20183;-43
2023/09/10 01:20:55;;;;;;;5.13;2.77;;;;;;;15.60;67.98;95026.25;5052027;28;20722;-43
2023/09/10 01:23:32;;;;;;;3.17;2.77;;;;;;;15.46;68.16;95004.47;5052271;28;20219;-44
2023/09/10 01:26:00;;;;;;;4.07;2.40;;;;;;;15.51;68.46;95007.38;5050622;28;20745;-43
2023/09/10 01:28:27;;;;;;;5.27;2.70;;;;;;;15.49;68.37;95016.22;5051611;28;20582;-42
2023/09/10 01:30:53;;;;;;;6.23;2.53;;;;;;;15.27;68.64;94982.38;5051720;28;20608;-43
2023/09/10 01:33:28;;;;;;;5.23;3.07;;;;;;;15.47;68.67;95015.59;5051964;28;20195;-43
2023/09/10 01:36:02;;;;;;;4.20;2.80;;;;;;;15.48;68.90;95025.72;5051842;28;20179;-43
2023/09/10 01:38:36;;;;;;;4.03;2.70;;;;;;;15.46;69.15;95025.09;5051760;28;20290;-43
2023/09/10 01:41:13;;;;;;;4.13;2.80;;;;;;;15.31;68.96;95012.00;5051589;28;20253;-43
2023/09/10 01:43:40;;;;;;;3.37;2.70;;;;;;;15.46;69.13;95026.88;5051645;28;20198;-43
2023/09/10 01:46:08;;;;;;;2.60;2.40;;;;;;;15.45;69.08;95030.41;5051594;28;20195;-43
2023/09/10 01:48:35;;;;;;;6.17;2.20;;;;;;;15.41;69.26;95022.16;5051591;28;20183;-43
2023/09/10 01:51:02;;;;;;;4.87;2.53;;;;;;;15.42;69.27;95028.97;5051687;28;20195;-43
2023/09/10 01:53:29;;;;;;;6.73;3.37;;;;;;;15.41;69.01;95029.09;5051594;28;20199;-45
2023/09/10 01:55:56;;;;;;;4.07;2.70;;;;;;;15.38;69.16;95029.44;5051514;28;20195;-42
2023/09/10 01:58:24;;;;;;;5.77;2.93;;;;;;;15.34;69.43;95028.13;5051534;28;20241;-42
2023/09/10 02:00:51;;;;;;;3.50;2.93;;;;;;;15.29;69.46;95033.78;5051454;28;20218;-41
2023/09/10 02:03:18;;;;;;;3.63;2.70;;;;;;;15.24;69.88;95033.41;5051272;28;20222;-42
2023/09/10 02:05:45;;;;;;;2.77;2.50;;;;;;;15.20;70.26;95034.72;5051269;28;20183;-44
2023/09/10 02:08:12;;;;;;;3.83;3.27;;;;;;;15.13;70.41;95033.72;5051292;28;20195;-42
2023/09/10 02:10:38;;;;;;;10.93;2.90;;;;;;;15.15;70.54;95044.66;5050844;28;20202;-42
2023/09/10 02:13:05;;;;;;;7.67;2.50;;;;;;;15.15;70.64;95042.88;5051420;28;20199;-42
2023/09/10 02:15:33;;;;;;;3.90;2.67;;;;;;;15.12;70.83;95040.66;5051113;28;20194;-42
2023/09/10 02:18:00;;;;;;;4.77;2.50;;;;;;;15.09;70.92;95048.69;5051112;28;20195;-43
2023/09/10 02:20:27;;;;;;;3.97;2.83;;;;;;;15.06;71.21;95042.06;5050886;28;20191;-42
2023/09/10 02:22:54;;;;;;;6.30;2.90;;;;;;;15.05;71.29;95052.53;5050847;28;20223;-42
2023/09/10 02:25:21;;;;;;;2.83;2.63;;;;;;;15.01;71.42;95046.88;5050694;28;20261;-42
2023/09/10 02:27:47;;;;;;;2.97;2.50;;;;;;;15.00;71.43;95045.28;5051160;28;20252;-41
2023/09/10 02:30:14;;;;;;;5.83;3.00;;;;;;;14.95;71.30;95037.22;5050761;28;20579;-42
2023/09/10 02:32:42;;;;;;;3.07;2.77;;;;;;;14.85;71.51;95033.13;5050784;28;20539;-42
2023/09/10 02:35:09;;;;;;;4.80;2.47;;;;;;;14.91;71.88;95042.84;5050731;28;20194;-42
2023/09/10 02:37:36;;;;;;;6.27;2.80;;;;;;;14.85;71.80;95033.13;5050017;28;20191;-43
2023/09/10 02:40:04;;;;;;;3.03;2.73;;;;;;;14.92;71.89;95047.81;5050734;28;20256;-42
2023/09/10 02:42:31;;;;;;;5.87;3.03;;;;;;;14.91;72.03;95045.41;5050248;28;20223;-42
2023/09/10 02:44:58;;;;;;;4.20;2.93;;;;;;;14.92;72.04;95045.25;5050713;28;20199;-43
2023/09/10 02:47:27;;;;;;;5.20;2.30;;;;;;;14.91;72.18;95035.91;5050599;28;20191;-43
2023/09/10 02:49:57;;;;;;;2.90;2.70;;;;;;;14.90;72.30;95034.31;5050560;28;20286;-42
2023/09/10 02:52:24;;;;;;;10.70;3.00;;;;;;;14.77;72.25;95021.88;5050217;28;20187;-43
2023/09/10 02:54:51;;;;;;;7.97;3.20;;;;;;;14.88;72.59;95032.84;5050639;28;20648;-41
2023/09/10 02:57:18;;;;;;;3.93;2.87;;;;;;;14.87;72.69;95031.22;5050094;28;20244;-43
2023/09/10 02:59:45;;;;;;;4.93;2.83;;;;;;;14.86;72.69;95034.78;5050405;28;20195;-41
2023/09/10 03:02:11;;;;;;;3.30;3.00;;;;;;;14.87;72.74;95033.81;5049943;28;20226;-43
2023/09/10 03:04:38;;;;;;;5.33;2.97;;;;;;;14.82;72.71;95031.69;5050081;28;20185;-43
2023/09/10 03:07:06;;;;;;;4.47;2.93;;;;;;;14.84;72.64;95034.09;5050116;28;20187;-44
2023/09/10 03:09:33;;;;;;;3.97;2.83;;;;;;;14.68;72.54;95004.78;5050111;28;20195;-43
2023/09/10 03:12:23;;;;;;;3.50;2.60;;;;;;;14.85;72.13;95040.88;5050264;28;20214;-42
2023/09/10 03:14:50;;;;;;;3.97;2.97;;;;;;;14.83;72.25;95030.72;5050039;28;20199;-44
2023/09/10 03:17:17;;;;;;;5.67;2.90;;;;;;;14.81;71.89;95040.38;5049792;28;20203;-43
2023/09/10 03:19:44;;;;;;;5.73;2.83;;;;;;;14.79;71.67;95048.25;5049851;28;20198;-42
2023/09/10 03:22:12;;;;;;;7.47;2.70;;;;;;;14.79;71.76;95045.69;5049782;28;20211;-41
2023/09/10 03:24:39;;;;;;;3.90;2.53;;;;;;;14.76;71.75;95048.56;5049661;28;20183;-43
2023/09/10 03:27:06;;;;;;;3.90;2.80;;;;;;;14.70;71.99;95040.66;5050214;28;20183;-40
2023/09/10 03:29:34;;;;;;;4.97;2.80;;;;;;;14.72;71.78;95055.00;5049492;28;20235;-44
2023/09/10 03:32:01;;;;;;;8.77;3.07;;;;;;;14.69;71.67;95050.16;5049801;28;20206;-42
2023/09/10 03:34:29;;;;;;;3.77;3.07;;;;;;;14.64;71.77;95047.22;5049408;28;20596;-42
2023/09/10 03:36:57;;;;;;;3.20;2.50;;;;;;;14.65;71.68;95056.56;5050038;28;20273;-42
2023/09/10 03:39:25;;;;;;;4.93;2.60;;;;;;;14.65;71.62;95053.97;5049135;28;20708;-43
2023/09/10 03:41:53;;;;;;;5.80;2.50;;;;;;;14.40;72.08;95019.56;5049800;28;20651;-44
2023/09/10 03:44:19;;;;;;;3.80;2.83;;;;;;;14.65;72.07;95051.41;5049572;28;20281;-42
2023/09/10 03:46:46;;;;;;;4.70;2.63;;;;;;;14.65;72.14;95058.34;5049602;28;20215;-43
2023/09/10 03:49:13;;;;;;;5.27;3.17;;;;;;;14.64;72.26;95056.72;5048435;28;20658;-40
2023/09/10 03:51:40;;;;;;;4.07;2.73;;;;;;;14.62;72.00;95059.44;5049408;28;20206;-43
2023/09/10 03:54:07;;;;;;;5.33;2.73;;;;;;;14.60;72.29;95052.84;5049295;28;20226;-41
2023/09/10 03:56:35;;;;;;;6.27;2.87;;;;;;;14.60;71.93;95058.78;5049521;28;20187;-43
2023/09/10 03:59:03;;;;;;;4.73;2.83;;;;;;;14.59;71.88;95062.31;5049226;28;20194;-42
2023/09/10 04:01:30;;;;;;;3.30;2.67;;;;;;;14.59;72.08;95064.06;5049395;28;20700;-43
2023/09/10 04:03:56;;;;;;;4.30;2.97;;;;;;;14.54;71.88;95059.38;5049135;28;20195;-42
2023/09/10 04:06:23;;;;;;;5.77;2.90;;;;;;;14.53;72.00;95062.94;5048898;28;20194;-44
2023/09/10 04:08:50;;;;;;;4.17;2.87;;;;;;;14.53;71.63;95065.50;5049473;28;20286;-43
2023/09/10 04:11:17;;;;;;;5.57;3.00;;;;;;;14.51;71.94;95062.28;5049136;28;20187;-42
2023/09/10 04:13:45;;;;;;;6.10;2.90;;;;;;;14.52;71.83;95067.28;5049284;28;20276;-44
2023/09/10 04:16:13;;;;;;;3.63;2.87;;;;;;;14.48;71.84;95062.56;5049053;28;20274;-43
2023/09/10 04:18:40;;;;;;;6.37;3.10;;;;;;;14.52;72.23;95075.00;5049013;28;20191;-42
2023/09/10 04:21:07;;;;;;;4.77;3.10;;;;;;;14.51;72.10;95075.97;5049326;28;20272;-42
2023/09/10 04:23:34;;;;;;;6.97;3.20;;;;;;;14.57;72.04;95071.97;5049355;28;20190;-43
2023/09/10 04:26:02;;;;;;;5.00;3.10;;;;;;;14.59;72.47;95070.03;5049103;28;20237;-42
2023/09/10 04:28:29;;;;;;;3.93;2.60;;;;;;;14.65;71.80;95071.19;5049305;28;20193;-43
2023/09/10 04:30:57;;;;;;;5.87;3.00;;;;;;;14.66;71.53;95073.63;5048824;28;20231;-43
2023/09/10 04:33:24;;;;;;;4.50;3.20;;;;;;;14.67;71.69;95075.22;5048993;28;20654;-43
2023/09/10 04:35:53;;;;;;;6.93;2.50;;;;;;;14.40;71.46;95029.84;5049356;28;20593;-43
2023/09/10 04:38:20;;;;;;;7.90;2.60;;;;;;;14.76;71.59;95088.94;5049013;28;20253;-43
2023/09/10 04:40:47;;;;;;;9.40;2.97;;;;;;;14.80;71.34;95077.38;5048991;28;20734;-43
2023/09/10 04:43:14;;;;;;;5.90;3.60;;;;;;;14.85;71.30;95082.06;5049180;28;20187;-43
2023/09/10 04:45:41;;;;;;;5.57;3.00;;;;;;;14.89;71.09;95081.59;5049141;28;20233;-43
2023/09/10 04:48:12;;;;;;;4.37;2.80;;;;;;;14.96;70.76;95081.81;5048526;28;20561;-43
2023/09/10 04:50:39;;;;;;;6.37;2.80;;;;;;;15.04;70.52;95087.00;5048876;28;20305;-43
2023/09/10 04:53:06;;;;;;;4.93;3.57;;;;;;;15.13;70.21;95080.09;5048766;28;20231;-43
2023/09/10 04:55:32;;;;;;;6.90;3.23;;;;;;;15.13;70.31;95077.53;5048942;28;20213;-43
2023/09/10 04:57:59;;;;;;;11.07;3.17;;;;;;;15.26;70.15;95089.00;5048767;28;20674;-43
2023/09/10 05:00:26;;;;;;;4.00;3.27;;;;;;;15.38;69.87;95091.28;5050605;28;20210;-42
2023/09/10 05:02:53;;;;;;;8.90;3.20;;;;;;;15.51;69.57;95092.44;5052559;28;20187;-45
2023/09/10 05:05:21;;;;;;;11.97;3.73;;;;;;;15.67;69.07;95094.28;5052579;28;20199;-43
2023/09/10 05:07:48;;;;;;;5.50;3.07;;;;;;;15.89;68.41;95095.44;5052292;28;20199;-43
2023/09/10 05:10:16;;;;;;;9.87;4.10;;;;;;;16.12;67.11;95090.44;5052508;28;20536;-43
2023/09/10 05:12:43;;;;;;;7.77;3.40;;;;;;;16.38;65.85;95092.03;5052062;28;20230;-43
2023/09/10 05:15:12;;;;;;;8.33;3.60;;;;;;;16.62;64.91;95091.97;5052426;28;20187;-43
2023/09/10 05:17:39;;;;;;;6.30;3.37;;;;;;;16.86;63.52;95087.75;5052084;28;20237;-43
2023/09/10 05:20:08;;;;;;;4.03;3.40;;;;;;;17.10;62.85;95097.19;5052677;28;20187;-43
2023/09/10 05:22:36;;;;;;;6.57;4.23;;;;;;;17.20;62.21;95074.53;5052155;28;20218;-42
2023/09/10 05:25:03;;;;;;;4.57;3.67;;;;;;;17.70;61.18;95102.56;5052335;28;20191;-42
2023/09/10 05:27:30;;;;;;;7.47;4.17;;;;;;;18.02;59.48;95104.13;5052415;28;20191;-42
2023/09/10 05:29:57;;;;;;;7.00;3.00;;;;;;;18.27;57.93;95106.53;5051528;28;20238;-43
2023/09/10 05:32:23;;;;;;;4.67;3.77;;;;;;;18.38;57.03;95107.88;5047630;28;20180;-42
2023/09/10 05:34:50;;;;;;;7.57;5.27;;;;;;;18.47;56.35;95101.66;5037051;28;20202;-44
2023/09/10 05:37:17;;;;;;;11.67;5.27;;;;;;;18.65;56.47;95107.31;5033688;28;20187;-42
2023/09/10 05:39:45;;;;;;;10.87;4.40;;;;;;;18.91;55.29;95100.91;5033157;28;20191;-43
2023/09/10 05:42:12;;;;;;;7.97;4.07;;;;;;;19.17;54.61;95113.41;5047969;28;20597;-44
2023/09/10 05:44:39;;;;;;;9.23;4.50;;;;;;;19.39;54.02;95112.50;5051742;28;20568;-42
2023/09/10 05:47:05;;;;;;;6.23;4.40;;;;;;;19.43;52.96;95076.63;5051941;28;20202;-43
2023/09/10 05:49:33;;;;;;;5.90;3.90;;;;;;;19.97;52.11;95107.34;5051532;28;20241;-43
2023/09/10 05:52:00;;;;;;;8.80;4.07;;;;;;;20.28;50.39;95109.63;5051199;28;20206;-43
2023/09/10 05:54:26;;;;;;;5.37;3.50;;;;;;;20.49;50.09;95114.81;5031669;28;20211;-43
2023/09/10 05:56:54;;;;;;;9.03;4.20;;;;;;;20.61;50.30;95112.53;5031844;28;20648;-44
2023/09/10 05:59:21;;;;;;;8.93;4.47;;;;;;;20.69;50.16;95106.38;5032230;28;20564;-45
2023/09/10 06:01:48;;;;;;;9.10;4.07;;;;;;;20.75;50.02;95106.41;5044814;28;20201;-45
2023/09/10 06:04:15;;;;;;;11.63;4.60;;;;;;;20.89;49.82;95111.69;5038320;28;20183;-45
2023/09/10 06:06:42;;;;;;;5.80;4.57;;;;;;;21.07;49.60;95116.38;5040454;28;20199;-45
2023/09/10 06:09:09;;;;;;;7.60;4.40;;;;;;;21.19;49.11;95118.25;5048380;28;20202;-45
2023/09/10 06:11:36;;;;;;;13.00;4.43;;;;;;;21.25;48.76;95112.31;5050441;28;20195;-44
2023/09/10 06:14:04;;;;;;;6.45;4.78;;;;;;;21.21;48.03;95113.69;5051174;28;20222;-44
2023/09/10 06:16:31;;;;;;;7.57;4.30;;;;;;;21.24;47.75;95115.91;5039125;28;20648;-43
2023/09/10 06:18:58;;;;;;;7.88;4.63;;;;;;;21.25;47.93;95117.50;5031659;28;20267;-47
2023/09/10 06:21:25;;;;;;;9.70;3.90;;;;;;;21.20;48.06;95113.84;5032074;28;20729;-43
2023/09/10 06:23:51;;;;;;;13.38;4.32;;;;;;;21.28;47.67;95122.28;5031116;28;20188;-43
2023/09/10 06:26:18;;;;;;;12.88;4.28;;;;;;;21.31;47.41;95108.09;5030835;28;20572;-44
2023/09/10 06:28:45;;;;;;;8.18;3.80;;;;;;;21.53;46.86;95130.44;5030717;28;20206;-43
2023/09/10 06:31:13;;;;;;;5.32;3.25;;;;;;;21.78;47.14;95132.53;5030764;28;20234;-45
2023/09/10 06:33:40;;;;;;;5.80;3.85;;;;;;;22.07;45.92;95121.00;5043595;28;20207;-44
2023/09/10 06:36:07;;;;;;;5.75;3.72;;;;;;;22.26;44.82;95119.44;5048744;28;20647;-44
2023/09/10 06:38:34;;;;;;;6.65;3.70;;;;;;;22.38;44.57;95124.84;5030613;28;20199;-45
2023/09/10 06:41:01;;;;;;;7.68;4.25;;;;;;;22.49;44.26;95125.03;5030785;28;20195;-44
2023/09/10 06:43:27;;;;;;;10.23;4.05;;;;;;;22.58;44.42;95119.63;5030366;28;20320;-42
2023/09/10 06:45:54;;;;;;;7.70;3.33;;;;;;;22.75;44.23;95126.03;5030927;28;20183;-44
2023/09/10 06:48:22;;;;;;;13.73;4.03;;;;;;;22.93;43.61;95108.00;5042068;28;20229;-42
2023/09/10 06:50:49;;;;;;;5.25;3.78;;;;;;;23.07;43.06;95116.59;5050819;28;20199;-45
2023/09/10 06:53:16;;;;;;;10.18;3.78;;;;;;;23.20;42.82;95107.91;5032911;28;20215;-45
2023/09/10 06:55:42;;;;;;;9.25;3.80;;;;;;;23.37;42.62;95122.13;5030815;28;20180;-46
2023/09/10 06:58:09;;;;;;;11.55;4.13;;;;;;;23.54;41.22;95118.03;5030363;28;20218;-43
2023/09/10 07:00:36;;;;;;;6.25;3.33;;;;;;;23.59;41.27;95122.63;5030620;28;20222;-43
2023/09/10 07:03:06;;;;;;;8.30;3.72;;;;;;;23.63;41.65;95123.03;5030823;28;20611;-46
2023/09/10 07:05:34;;;;;;;5.00;3.53;;;;;;;23.90;41.39;95124.50;5030372;28;20294;-43
2023/09/10 07:08:01;;;;;;;6.95;3.40;;;;;;;24.39;40.84;95119.59;5030407;28;20192;-45
2023/09/10 07:10:28;;;;;;;11.00;4.07;;;;;;;24.86;39.54;95120.00;5030173;28;20245;-45
2023/09/10 07:12:54;;;;;;;12.75;4.03;;;;;;;25.10;38.93;95124.41;5030169;28;20206;-45
2023/09/10 07:15:21;;;;;;;11.88;3.80;;;;;;;25.25;38.57;95130.06;5029956;28;20196;-46
2023/09/10 07:17:48;;;;;;;5.68;3.80;;;;;;;25.41;38.50;95120.84;5030294;28;20250;-43
2023/09/10 07:20:16;;;;;;;9.05;3.63;;;;;;;25.55;38.48;95121.47;5029827;28;20206;-45
2023/09/10 07:22:44;;;;;;;7.43;3.45;;;;;;;25.65;38.08;95126.22;5030079;28;20199;-43
2023/09/10 07:25:11;;;;;;;6.70;3.95;;;;;;;25.73;38.39;95131.97;5029930;28;20195;-43
2023/09/10 07:27:37;;;;;;;4.47;3.22;;;;;;;25.91;37.55;95125.91;5029737;28;20634;-44
2023/09/10 07:30:05;;;;;;;7.93;3.60;;;;;;;26.18;37.49;95122.91;5037685;28;20609;-42
2023/09/10 07:32:32;;;;;;;5.55;3.50;;;;;;;26.54;36.84;95121.97;5050168;28;20183;-43
2023/09/10 07:35:00;;;;;;;4.40;3.53;;;;;;;26.84;36.74;95121.88;5049386;28;20219;-44
2023/09/10 07:37:26;;;;;;;7.53;3.55;;;;;;;27.05;36.28;95110.00;5049891;28;20194;-45
2023/09/10 07:39:54;;;;;;;4.75;3.22;;;;;;;27.21;35.81;95109.31;5049595;28;20191;-43
2023/09/10 07:42:21;;;;;;;6.13;3.53;;;;;;;27.40;35.74;95115.22;5049348;28;20713;-44
2023/09/10 07:44:48;;;;;;;9.63;3.90;;;;;;;27.60;35.10;95109.56;5049678;28;20191;-45
2023/09/10 07:47:15;;;;;;;4.30;3.45;;;;;;;27.47;34.73;95101.94;5049475;28;20190;-43
2023/09/10 07:49:42;;;;;;;4.10;3.08;;;;;;;27.54;34.24;95105.22;5049954;28;20283;-44
2023/09/10 07:52:08;;;;;;;6.32;3.95;;;;;;;27.79;34.47;95110.19;5049249;28;20190;-44
2023/09/10 07:54:36;;;;;;;8.75;3.55;;;;;;;27.91;33.66;95103.06;5049464;28;20248;-45
2023/09/10 07:57:04;;;;;;;4.05;3.15;;;;;;;28.08;34.30;95100.47;5049176;28;20195;-44
2023/09/10 07:59:31;;;;;;;11.18;3.67;;;;;;;28.23;34.08;95103.34;5049517;28;20195;-43
2023/09/10 08:01:59;;;;;;;4.82;3.20;;;;;;;28.35;33.52;95108.56;5049644;28;20202;-45
2023/09/10 08:04:26;;;;;;;5.68;3.25;;;;;;;28.34;32.76;95108.78;5049446;28;20253;-43
2023/09/10 08:06:53;;;;;;;4.45;3.10;;;;;;;28.35;32.89;95105.13;5049169;28;20199;-46
2023/09/10 08:09:20;;;;;;;8.55;3.60;;;;;;;28.40;32.45;95099.97;5049537;28;20191;-44
2023/09/10 08:11:46;;;;;;;5.45;3.40;;;;;;;28.29;32.28;95100.81;5049050;28;20195;-43
2023/09/10 08:14:14;;;;;;;8.98;3.30;;;;;;;28.07;33.03;95100.72;5049433;28;20706;-44
2023/09/10 08:16:41;;;;;;;5.28;2.92;;;;;;;27.73;32.81;95083.03;5049594;28;20261;-45
2023/09/10 08:19:08;;;;;;;3.80;3.03;;;;;;;27.65;32.96;95083.38;5049498;28;20210;-44
2023/09/10 08:21:35;;;;;;;6.80;2.70;;;;;;;27.79;32.78;95091.00;5049417;28;20266;-45
2023/09/10 08:24:02;;;;;;;8.32;3.10;;;;;;;27.85;32.77;95061.97;5049180;28;20570;-46
2023/09/10 08:26:29;;;;;;;5.05;2.97;;;;;;;28.25;32.75;95087.34;5049418;28;20230;-46
2023/09/10 08:28:56;;;;;;;8.55;3.22;;;;;;;28.37;32.84;95095.16;5048825;28;20376;-43
2023/09/10 08:31:24;;;;;;;3.30;2.67;;;;;;;28.45;32.87;95090.34;5049320;28;20230;-43
2023/09/10 08:33:51;;;;;;;4.45;2.80;;;;;;;28.44;33.04;95093.19;5048931;28;20705;-44
2023/09/10 08:36:17;;;;;;;3.47;2.65;;;;;;;28.52;33.21;95084.09;5052691;28;20195;-43
2023/09/10 08:38:44;;;;;;;5.63;3.05;;;;;;;28.56;32.72;95091.28;5052992;28;20725;-44
2023/09/10 08:41:20;;;;;;;6.85;3.28;;;;;;;28.54;33.20;95085.47;5053213;28;20252;-43
2023/09/10 08:43:55;;;;;;;4.53;2.97;;;;;;;28.61;33.69;95087.91;5053068;28;20209;-45
2023/09/10 08:46:30;;;;;;;7.97;3.05;;;;;;;28.74;34.06;95087.59;5052917;28;20673;-44
2023/09/10 08:48:57;;;;;;;7.03;2.88;;;;;;;28.83;33.56;95085.34;5052559;28;20186;-44
2023/09/10 08:51:24;;;;;;;6.15;3.08;;;;;;;28.84;34.36;95087.72;5052913;28;20241;-43
2023/09/10 08:53:53;;;;;;;5.30;3.10;;;;;;;28.90;34.38;95093.88;5052674;28;20230;-43
2023/09/10 08:56:19;;;;;;;9.25;3.85;;;;;;;29.00;34.28;95088.75;5052724;28;20198;-42
2023/09/10 08:58:49;;;;;;;2.95;2.67;;;;;;;28.85;34.15;95064.84;5052369;28;20248;-43
2023/09/10 09:01:16;;;;;;;3.45;2.95;;;;;;;28.92;33.74;95082.03;5052611;28;20195;-43
2023/09/10 09:03:44;;;;;;;5.30;3.78;;;;;;;28.54;33.60;95024.13;5052229;28;20213;-43
2023/09/10 09:06:10;;;;;;;5.45;3.15;;;;;;;28.89;34.33;95079.91;5052534;28;20195;-45
2023/09/10 09:08:39;;;;;;;4.32;3.38;;;;;;;28.78;34.07;95078.16;5052519;28;20191;-42
2023/09/10 09:11:08;;;;;;;4.05;2.83;;;;;;;28.80;34.20;95072.66;5052537;28;20190;-45
2023/09/10 09:13:38;;;;;;;7.72;3.45;;;;;;;28.76;34.64;95080.25;5052251;28;20230;-45
2023/09/10 09:16:06;;;;;;;6.88;4.03;;;;;;;28.63;34.96;95076.13;5052435;28;20206;-43
2023/09/10 09:18:36;;;;;;;4.20;3.70;;;;;;;28.72;34.86;95079.16;5052385;28;20541;-45
2023/09/10 09:21:10;;;;;;;4.97;3.90;;;;;;;28.72;34.95;95073.88;5052308;28;20199;-44
2023/09/10 09:23:42;;;;;;;4.72;3.45;;;;;;;28.74;34.37;95069.16;5052565;28;20205;-43
2023/09/10 09:26:11;;;;;;;5.28;3.45;;;;;;;28.69;34.37;95088.31;5052504;28;20195;-44
2023/09/10 09:28:39;;;;;;;8.18;3.88;;;;;;;28.29;34.94;95016.63;5051923;28;20629;-44
2023/09/10 09:31:08;;;;;;;4.55;3.95;;;;;;;28.53;34.59;95070.69;5051972;28;20231;-45
2023/09/10 09:33:35;;;;;;;6.93;3.85;;;;;;;28.38;34.94;95067.84;5051864;28;20289;-45
2023/09/10 09:36:08;;;;;;;6.60;3.80;;;;;;;28.31;35.27;95067.97;5051836;28;20230;-44
2023/09/10 09:38:35;;;;;;;4.80;3.35;;;;;;;28.26;35.05;95073.16;5051877;28;20191;-43
2023/09/10 09:41:03;;;;;;;6.40;3.20;;;;;;;27.86;34.83;95015.44;5051498;28;20256;-44
2023/09/10 09:43:33;;;;;;;9.00;3.75;;;;;;;28.17;35.42;95067.47;5052013;28;20631;-44
2023/09/10 09:46:00;;;;;;;6.70;4.75;;;;;;;28.11;35.10;95063.19;5050635;28;20191;-43
2023/09/10 09:48:27;;;;;;;10.15;6.15;;;;;;;28.15;35.59;95066.13;5051431;28;20194;-44
2023/09/10 09:50:54;;;;;;;6.22;3.72;;;;;;;28.12;35.37;95063.97;5051649;28;20199;-43
2023/09/10 09:53:24;;;;;;;4.38;3.45;;;;;;;28.02;35.42;95059.31;5051657;28;20281;-44
2023/09/10 09:55:54;;;;;;;8.05;5.82;;;;;;;27.81;36.02;95068.72;5051110;28;20667;-44
2023/09/10 09:58:22;;;;;;;6.22;4.43;;;;;;;27.62;36.33;95041.78;5051941;28;20190;-44
2023/09/10 10:00:48;;;;;;;5.95;3.60;;;;;;;27.63;36.40;95053.88;5033614;28;20199;-43
2023/09/10 10:03:18;;;;;;;6.07;3.58;;;;;;;27.74;36.30;95057.53;5051538;28;20278;-43
2023/09/10 10:05:45;;;;;;;3.28;2.97;;;;;;;27.71;36.13;95048.25;5051372;28;20266;-43
2023/09/10 10:08:12;;;;;;;4.60;3.70;;;;;;;27.64;36.13;95052.09;5051791;28;20260;-44
2023/09/10 10:10:47;;;;;;;6.53;3.40;;;;;;;27.43;36.60;95041.19;5051366;28;20199;-42
2023/09/10 10:13:17;;;;;;;4.20;3.80;;;;;;;27.33;36.65;95045.44;5051457;28;20363;-44
2023/09/10 10:15:46;;;;;;;5.22;4.00;;;;;;;27.26;36.61;95042.97;5050861;28;20308;-45
2023/09/10 10:18:14;;;;;;;4.75;3.67;;;;;;;27.17;36.92;95024.16;5051184;28;20187;-45
2023/09/10 10:20:46;;;;;;;4.45;3.85;;;;;;;27.29;36.91;95034.63;5050976;28;20190;-45
2023/09/10 10:23:13;;;;;;;4.47;3.38;;;;;;;27.30;37.06;95030.16;5051511;28;20651;-45
2023/09/10 10:25:42;;;;;;;10.52;3.85;;;;;;;27.30;37.04;95033.59;5050722;28;20194;-43
2023/09/10 10:28:10;;;;;;;5.22;3.42;;;;;;;27.27;36.76;95028.78;5050939;28;20199;-43
2023/09/10 10:30:40;;;;;;;4.38;3.60;;;;;;;27.26;37.15;95025.38;5050646;28;20235;-44
2023/09/10 10:33:10;;;;;;;4.15;3.70;;;;;;;27.37;36.78;95017.66;5051301;28;20589;-45
2023/09/10 10:35:45;;;;;;;6.15;4.00;;;;;;;27.43;37.17;95022.81;5051034;28;20214;-43
2023/09/10 10:38:18;;;;;;;7.43;4.45;;;;;;;27.48;37.28;95014.22;5050849;28;20674;-45
2023/09/10 10:40:51;;;;;;;5.47;3.67;;;;;;;27.59;37.08;95012.56;5050316;28;20190;-45
2023/09/10 10:43:25;;;;;;;8.68;3.83;;;;;;;27.70;36.33;95009.06;5050918;28;20556;-44
2023/09/10 10:45:57;;;;;;;5.88;3.60;;;;;;;27.65;36.56;95009.78;5050225;28;20613;-44
2023/09/10 10:48:27;;;;;;;5.47;3.90;;;;;;;27.27;37.29;94966.56;5050667;28;20630;-43
2023/09/10 10:50:56;;;;;;;24.63;5.35;;;;;;;27.46;37.00;95003.94;5050389;28;20688;-44
2023/09/10 10:53:25;;;;;;;5.72;4.13;;;;;;;27.39;36.85;94989.34;5050412;28;20196;-43
2023/09/10 10:55:57;;;;;;;6.50;4.63;;;;;;;27.36;36.72;95002.94;5050407;28;20276;-44
2023/09/10 10:58:24;;;;;;;5.82;3.65;;;;;;;27.22;36.92;94994.56;5050078;28;20186;-46
2023/09/10 11:00:52;;;;;;;9.73;5.38;;;;;;;27.22;37.02;94995.34;5050142;28;20191;-45
2023/09/10 11:03:21;;;;;;;8.05;5.30;;;;;;;27.26;37.25;94993.06;5050315;28;20229;-43
2023/09/10 11:06:05;;;;;;;10.35;3.65;;;;;;;27.14;37.20;94987.84;5050148;28;20635;-44
2023/09/10 11:08:33;;;;;;;4.78;3.97;;;;;;;27.12;37.35;94986.50;5050606;28;20198;-44
2023/09/10 11:11:03;;;;;;;6.50;4.55;;;;;;;26.95;37.29;94962.78;5050017;28;20199;-45
2023/09/10 11:13:33;;;;;;;5.72;4.57;;;;;;;26.84;37.49;94979.34;5050187;28;20191;-44
2023/09/10 11:16:16;;;;;;;4.22;3.83;;;;;;;26.91;37.91;94985.25;5049975;28;20262;-44
2023/09/10 11:18:43;;;;;;;5.15;3.78;;;;;;;26.95;37.34;94970.66;5050233;28;20241;-44
2023/09/10 11:21:11;;;;;;;4.75;3.40;;;;;;;27.00;37.44;94979.41;5050091;28;20188;-45
2023/09/10 11:23:39;;;;;;;7.55;3.58;;;;;;;27.02;37.06;94966.03;5050088;28;20190;-45
2023/09/10 11:26:32;;;;;;;7.70;5.40;;;;;;;27.07;37.79;94974.00;5049728;28;20230;-45
2023/09/10 11:29:01;;;;;;;4.72;4.05;;;;;;;27.03;37.57;94967.66;5049686;28;20207;-45
2023/09/10 11:31:37;;;;;;;7.20;3.67;;;;;;;27.01;37.27;94967.88;5049351;28;20317;-45
2023/09/10 11:34:39;;;;;;;5.20;4.70;;;;;;;27.05;37.76;94972.66;5050116;28;20182;-45
2023/09/10 11:37:10;;;;;;;6.15;3.83;;;;;;;27.00;37.59;94961.03;5049824;28;20256;-45